createdAt,value
2018-04-07T00:01:33.338Z,95.70
2018-04-07T00:03:59.452Z,95.80
2018-04-07T00:06:26.225Z,96.60
2018-04-07T00:08:52.569Z,96.90
2018-04-07T00:11:19.354Z,97.40
2018-04-07T00:13:45.504Z,97.40
2018-04-07T00:16:12.227Z,97.40
2018-04-07T00:18:38.810Z,97.60
2018-04-07T00:21:05.540Z,97.50
2018-04-07T00:23:32.829Z,97.40
2018-04-07T00:25:58.949Z,97.60
2018-04-07T00:28:25.067Z,97.90
2018-04-07T00:30:52.103Z,98.00
2018-04-07T00:33:18.233Z,98.20
2018-04-07T00:35:44.332Z,98.20
2018-04-07T00:38:10.457Z,98.60
2018-04-07T00:40:36.493Z,98.50
2018-04-07T00:43:03.325Z,98.80
2018-04-07T00:45:30.822Z,98.60
2018-04-07T00:47:57.286Z,98.30
2018-04-07T00:50:24.460Z,98.40
2018-04-07T00:52:54.477Z,98.70
2018-04-07T00:55:20.501Z,98.90
2018-04-07T00:57:46.536Z,99.10
2018-04-07T01:00:12.899Z,99.10
2018-04-07T01:02:39.009Z,98.90
2018-04-07T01:05:05.109Z,99.10
2018-04-07T01:07:32.824Z,99.30
2018-04-07T01:09:59.660Z,99.50
2018-04-07T01:12:25.739Z,99.50
2018-04-07T01:14:51.861Z,99.60
2018-04-07T01:17:17.986Z,99.70
2018-04-07T01:19:44.064Z,99.80
2018-04-07T01:22:10.458Z,99.90
2018-04-07T01:24:36.668Z,99.90
2018-04-07T01:27:03.152Z,99.90
2018-04-07T01:29:29.376Z,99.90
2018-04-07T01:31:55.714Z,99.90
2018-04-07T01:34:23.200Z,99.90
2018-04-07T01:36:49.345Z,99.90
2018-04-07T01:39:15.488Z,99.90
2018-04-07T01:41:41.694Z,99.90
2018-04-07T01:44:07.917Z,99.90
2018-04-07T01:46:34.493Z,99.90
2018-04-07T01:49:00.589Z,99.90
2018-04-07T01:51:26.651Z,99.90
2018-04-07T01:53:52.653Z,99.90
2018-04-07T01:56:18.710Z,99.90
2018-04-07T01:58:44.933Z,99.90
2018-04-07T02:01:12.189Z,99.90
2018-04-07T02:03:38.568Z,99.90
2018-04-07T02:06:04.757Z,99.90
2018-04-07T02:08:32.180Z,99.90
2018-04-07T02:10:58.377Z,99.90
2018-04-07T02:13:24.564Z,99.90
2018-04-07T02:15:50.772Z,99.90
2018-04-07T02:18:16.876Z,99.90
2018-04-07T02:20:43.342Z,99.90
2018-04-07T02:23:09.424Z,99.90
2018-04-07T02:25:35.598Z,99.90
2018-04-07T02:28:01.691Z,99.90
2018-04-07T02:30:27.760Z,99.90
2018-04-07T02:32:53.890Z,99.90
2018-04-07T02:35:19.996Z,99.90
2018-04-07T02:37:45.995Z,99.90
2018-04-07T02:40:13.002Z,99.90
2018-04-07T02:42:39.764Z,99.90
2018-04-07T02:45:06.134Z,99.90
2018-04-07T02:47:32.183Z,99.90
2018-04-07T02:49:59.027Z,99.90
2018-04-07T02:52:25.259Z,99.90
2018-04-07T02:54:51.474Z,99.80
2018-04-07T02:57:17.637Z,99.70
2018-04-07T02:59:43.688Z,99.90
2018-04-07T03:02:09.769Z,99.90
2018-04-07T03:04:35.873Z,99.90
2018-04-07T03:07:02.031Z,99.90
2018-04-07T03:09:28.371Z,99.90
2018-04-07T03:11:55.118Z,99.90
2018-04-07T03:14:21.244Z,99.90
2018-04-07T03:16:47.262Z,99.90
2018-04-07T03:19:13.313Z,99.90
2018-04-07T03:21:40.256Z,99.90
2018-04-07T03:24:06.417Z,99.90
2018-04-07T03:26:32.600Z,99.90
2018-04-07T03:28:59.995Z,99.90
2018-04-07T03:31:26.218Z,99.90
2018-04-07T03:33:52.365Z,99.90
2018-04-07T03:36:18.553Z,99.90
2018-04-07T03:38:44.635Z,99.90
2018-04-07T03:41:10.849Z,99.90
2018-04-07T03:43:36.988Z,99.90
2018-04-07T03:46:03.079Z,99.90
2018-04-07T03:48:29.152Z,99.90
2018-04-07T03:50:55.280Z,99.90
2018-04-07T03:53:21.372Z,99.90
2018-04-07T03:55:47.438Z,99.90
2018-04-07T03:58:13.495Z,99.90
2018-04-07T04:00:39.493Z,99.90
2018-04-07T04:03:05.614Z,99.90
2018-04-07T04:05:31.849Z,99.90
2018-04-07T04:07:57.929Z,99.90
2018-04-07T04:10:24.006Z,99.90
2018-04-07T04:12:50.406Z,99.90
2018-04-07T04:15:16.447Z,99.90
2018-04-07T04:17:43.034Z,99.90
2018-04-07T04:20:11.307Z,99.90
2018-04-07T04:22:37.407Z,99.90
2018-04-07T04:25:03.905Z,99.90
2018-04-07T04:27:30.172Z,99.90
2018-04-07T04:29:56.221Z,99.90
2018-04-07T04:32:22.548Z,99.90
2018-04-07T04:34:48.591Z,99.90
2018-04-07T04:37:16.463Z,99.90
2018-04-07T04:39:42.472Z,99.90
2018-04-07T04:42:08.604Z,99.90
2018-04-07T04:44:35.385Z,99.90
2018-04-07T04:47:02.554Z,99.90
2018-04-07T04:49:28.838Z,99.90
2018-04-07T04:51:58.145Z,99.90
2018-04-07T04:54:24.308Z,99.90
2018-04-07T04:56:50.716Z,99.90
2018-04-07T04:59:17.197Z,99.90
2018-04-07T05:01:43.264Z,99.90
2018-04-07T05:04:10.668Z,99.90
2018-04-07T05:06:36.747Z,99.90
2018-04-07T05:09:02.728Z,99.90
2018-04-07T05:11:29.746Z,99.90
2018-04-07T05:13:55.807Z,99.90
2018-04-07T05:16:22.037Z,99.90
2018-04-07T05:18:48.234Z,99.90
2018-04-07T05:21:15.002Z,99.90
2018-04-07T05:23:42.156Z,99.90
2018-04-07T05:26:08.226Z,99.90
2018-04-07T05:28:34.537Z,99.90
2018-04-07T05:31:01.590Z,99.90
2018-04-07T05:33:27.669Z,99.90
2018-04-07T05:35:54.693Z,99.90
2018-04-07T05:38:21.698Z,99.90
2018-04-07T05:40:47.797Z,99.90
2018-04-07T05:43:13.866Z,99.90
2018-04-07T05:45:40.682Z,99.90
2018-04-07T05:48:06.823Z,99.90
2018-04-07T05:50:32.897Z,99.90
2018-04-07T05:52:58.977Z,99.90
2018-04-07T05:55:25.082Z,99.90
2018-04-07T05:57:51.609Z,99.90
2018-04-07T06:00:17.739Z,99.90
2018-04-07T06:02:43.819Z,99.90
2018-04-07T06:05:10.894Z,99.90
2018-04-07T06:07:37.042Z,99.90
2018-04-07T06:10:03.163Z,99.90
2018-04-07T06:12:30.126Z,99.90
2018-04-07T06:14:56.234Z,99.90
2018-04-07T06:17:23.330Z,99.90
2018-04-07T06:19:49.658Z,99.90
2018-04-07T06:22:15.839Z,99.90
2018-04-07T06:24:41.956Z,99.90
2018-04-07T06:27:08.164Z,99.70
2018-04-07T06:29:34.347Z,99.50
2018-04-07T06:32:00.491Z,99.00
2018-04-07T06:34:26.525Z,98.70
2018-04-07T06:36:53.214Z,98.70
2018-04-07T06:39:19.294Z,98.20
2018-04-07T06:41:46.238Z,97.90
2018-04-07T06:44:12.288Z,97.90
2018-04-07T06:46:38.789Z,97.70
2018-04-07T06:49:06.820Z,98.00
2018-04-07T06:51:33.618Z,98.00
2018-04-07T06:54:01.146Z,98.30
2018-04-07T06:56:27.278Z,98.20
2018-04-07T06:58:53.340Z,98.30
2018-04-07T07:01:19.428Z,98.00
2018-04-07T07:03:45.793Z,97.80
2018-04-07T07:06:12.196Z,96.90
2018-04-07T07:08:38.449Z,96.90
2018-04-07T07:11:05.268Z,96.90
2018-04-07T07:13:32.428Z,96.80
2018-04-07T07:15:59.375Z,96.70
2018-04-07T07:18:28.128Z,96.60
2018-04-07T07:20:56.091Z,96.60
2018-04-07T07:23:23.235Z,96.70
2018-04-07T07:25:51.212Z,97.80
2018-04-07T07:28:18.283Z,96.40
2018-04-07T07:30:45.196Z,96.50
2018-04-07T07:33:12.236Z,96.40
2018-04-07T07:35:39.038Z,96.30
2018-04-07T07:38:06.030Z,96.00
2018-04-07T07:40:32.405Z,95.10
2018-04-07T07:43:05.319Z,94.80
2018-04-07T07:45:31.601Z,94.40
2018-04-07T07:47:57.856Z,94.30
2018-04-07T07:50:23.995Z,94.60
2018-04-07T07:52:50.951Z,94.60
2018-04-07T07:55:18.331Z,94.60
2018-04-07T07:57:45.431Z,94.80
2018-04-07T08:00:12.536Z,94.70
2018-04-07T08:02:38.655Z,94.80
2018-04-07T08:05:05.101Z,94.90
2018-04-07T08:07:32.245Z,95.10
2018-04-07T08:09:59.945Z,95.10
2018-04-07T08:12:26.256Z,95.20
2018-04-07T08:14:53.229Z,95.10
2018-04-07T08:17:19.592Z,95.20
2018-04-07T08:19:46.751Z,95.20
2018-04-07T08:22:12.766Z,95.00
2018-04-07T08:24:41.064Z,94.70
2018-04-07T08:27:07.920Z,94.40
2018-04-07T08:29:34.271Z,94.30
2018-04-07T08:32:00.599Z,94.30
2018-04-07T08:34:27.650Z,94.50
2018-04-07T08:36:54.390Z,94.30
2018-04-07T08:39:20.561Z,94.00
2018-04-07T08:41:47.042Z,93.90
2018-04-07T08:44:13.057Z,93.60
2018-04-07T08:46:39.127Z,93.50
2018-04-07T08:49:05.258Z,93.40
2018-04-07T08:51:31.340Z,93.10
2018-04-07T08:53:57.478Z,92.90
2018-04-07T08:56:23.605Z,92.60
2018-04-07T08:58:49.738Z,93.00
2018-04-07T09:01:16.505Z,92.20
2018-04-07T09:03:42.695Z,92.20
2018-04-07T09:06:10.270Z,91.20
2018-04-07T09:08:36.626Z,91.10
2018-04-07T09:11:03.020Z,90.80
2018-04-07T09:13:31.137Z,91.20
2018-04-07T09:15:57.959Z,91.00
2018-04-07T09:18:24.712Z,91.00
2018-04-07T09:20:51.526Z,90.40
2018-04-07T09:23:18.377Z,90.60
2018-04-07T09:25:44.752Z,90.20
2018-04-07T09:28:11.662Z,89.90
2018-04-07T09:30:37.875Z,89.80
2018-04-07T09:33:04.047Z,89.20
2018-04-07T09:35:30.679Z,87.30
2018-04-07T09:37:56.803Z,87.60
2018-04-07T09:40:22.856Z,87.00
2018-04-07T09:42:49.711Z,84.60
2018-04-07T09:45:16.404Z,84.60
2018-04-07T09:47:42.487Z,84.10
2018-04-07T09:50:08.788Z,84.60
2018-04-07T09:52:35.108Z,84.50
2018-04-07T09:55:03.147Z,83.60
2018-04-07T09:57:31.092Z,83.40
2018-04-07T09:59:57.169Z,83.50
2018-04-07T10:02:23.241Z,82.40
2018-04-07T10:04:50.357Z,82.50
2018-04-07T10:07:17.333Z,79.20
2018-04-07T10:09:43.561Z,79.10
2018-04-07T10:12:09.779Z,79.10
2018-04-07T10:14:36.596Z,78.10
2018-04-07T10:17:04.129Z,79.10
2018-04-07T10:19:30.789Z,77.30
2018-04-07T10:21:57.880Z,78.00
2018-04-07T10:24:26.873Z,76.90
2018-04-07T10:26:53.062Z,76.70
2018-04-07T10:29:20.039Z,76.90
2018-04-07T10:31:46.107Z,75.20
2018-04-07T10:34:13.740Z,74.20
2018-04-07T10:36:40.205Z,74.70
2018-04-07T10:39:10.126Z,72.20
2018-04-07T10:41:37.067Z,71.70
2018-04-07T10:44:04.206Z,71.50
2018-04-07T10:46:33.708Z,71.50
2018-04-07T10:49:00.722Z,69.90
2018-04-07T10:51:26.843Z,68.90
2018-04-07T10:53:53.692Z,68.10
2018-04-07T10:56:59.469Z,68.60
2018-04-07T10:59:25.751Z,68.60
2018-04-07T11:01:53.841Z,67.60
2018-04-07T11:04:19.928Z,67.60
2018-04-07T11:06:45.988Z,66.60
2018-04-07T11:09:13.134Z,65.50
2018-04-07T11:11:40.003Z,64.80
2018-04-07T11:14:07.412Z,64.60
2018-04-07T11:16:34.702Z,64.00
2018-04-07T11:19:02.780Z,62.70
2018-04-07T11:21:29.102Z,61.60
2018-04-07T11:23:56.048Z,59.80
2018-04-07T11:26:23.223Z,59.60
2018-04-07T11:28:52.068Z,58.70
2018-04-07T11:31:18.512Z,58.30
2018-04-07T11:33:44.569Z,58.00
2018-04-07T11:36:10.692Z,57.00
2018-04-07T11:55:21.820Z,53.30
2018-04-07T11:57:48.809Z,52.80
2018-04-07T12:00:14.889Z,54.00
2018-04-07T12:02:41.011Z,52.40
2018-04-07T12:05:14.599Z,52.10
2018-04-07T12:07:45.982Z,50.60
2018-04-07T12:10:17.646Z,49.40
2018-04-07T12:12:49.593Z,50.20
2018-04-07T12:15:19.202Z,49.50
2018-04-07T12:17:48.914Z,48.60
2018-04-07T12:20:21.441Z,47.80
2018-04-07T12:22:51.879Z,47.10
2018-04-07T12:25:19.389Z,47.60
2018-04-07T12:27:46.365Z,46.90
2018-04-07T12:30:14.318Z,47.10
2018-04-07T12:33:16.252Z,46.90
2018-04-07T12:35:42.382Z,46.70
2018-04-07T12:38:09.170Z,46.80
2018-04-07T12:40:37.246Z,44.70
2018-04-07T12:43:03.376Z,44.40
2018-04-07T12:45:31.989Z,44.70
2018-04-07T12:47:58.054Z,44.40
2018-04-07T12:50:24.702Z,44.50
2018-04-07T12:52:55.827Z,44.20
2018-04-07T12:55:21.900Z,43.60
2018-04-07T12:57:48.907Z,43.40
2018-04-07T13:00:15.299Z,42.70
2018-04-07T13:02:41.420Z,42.70
2018-04-07T13:05:08.509Z,43.00
2018-04-07T13:07:35.467Z,43.70
2018-04-07T13:10:01.588Z,42.70
2018-04-07T13:12:27.678Z,41.60
2018-04-07T13:14:53.740Z,40.90
2018-04-07T13:17:19.819Z,41.50
2018-04-07T13:19:47.446Z,41.00
2018-04-07T13:22:13.546Z,41.10
2018-04-07T13:24:39.798Z,40.40
2018-04-07T13:27:06.008Z,40.90
2018-04-07T13:29:33.071Z,41.20
2018-04-07T13:32:00.093Z,40.80
2018-04-07T13:34:30.000Z,40.20
2018-04-07T13:36:56.460Z,40.20
2018-04-07T13:39:22.614Z,39.80
2018-04-07T13:41:48.883Z,39.50
2018-04-07T13:44:15.083Z,39.70
2018-04-07T13:46:41.259Z,38.60
2018-04-07T13:49:07.830Z,38.30
2018-04-07T13:51:34.845Z,37.30
2018-04-07T13:54:03.378Z,37.30
2018-04-07T13:56:29.629Z,36.70
2018-04-07T13:58:56.971Z,38.40
2018-04-07T14:01:23.034Z,38.40
2018-04-07T14:03:49.976Z,38.20
2018-04-07T14:06:17.129Z,37.60
2018-04-07T14:08:44.573Z,37.70
2018-04-07T14:11:11.317Z,37.10
2018-04-07T14:13:37.679Z,37.00
2018-04-07T14:16:03.805Z,37.90
2018-04-07T14:18:31.197Z,38.40
2018-04-07T14:20:57.254Z,38.50
2018-04-07T14:23:23.498Z,37.20
2018-04-07T14:25:50.451Z,37.10
2018-04-07T14:28:16.624Z,36.60
2018-04-07T14:30:44.218Z,36.80
2018-04-07T14:33:11.155Z,36.60
2018-04-07T14:35:37.321Z,36.10
2018-04-07T14:38:04.311Z,35.50
2018-04-07T14:40:30.358Z,35.50
2018-04-07T14:42:56.400Z,35.10
2018-04-07T14:45:22.556Z,34.90
2018-04-07T14:51:20.500Z,32.90
2018-04-07T14:53:46.864Z,32.90
2018-04-07T14:56:14.412Z,33.50
2018-04-07T14:58:41.561Z,33.80
2018-04-07T15:01:08.019Z,33.40
2018-04-07T15:03:34.325Z,33.60
2018-04-07T15:06:00.436Z,32.80
2018-04-07T15:08:27.491Z,32.70
2018-04-07T15:10:53.775Z,32.40
2018-04-07T15:13:19.970Z,32.50
2018-04-07T15:15:46.236Z,31.60
2018-04-07T15:18:13.491Z,30.50
2018-04-07T15:20:40.049Z,30.90
2018-04-07T15:23:06.679Z,31.20
2018-04-07T15:25:32.992Z,31.30
2018-04-07T15:27:59.129Z,31.10
2018-04-07T15:30:25.251Z,30.70
2018-04-07T15:32:52.087Z,31.30
2018-04-07T15:35:20.493Z,30.80
2018-04-07T15:37:52.569Z,30.70
2018-04-07T15:40:24.170Z,30.60
2018-04-07T15:42:55.473Z,30.40
2018-04-07T15:45:28.972Z,30.50
2018-04-07T15:48:04.356Z,30.00
2018-04-07T15:50:39.843Z,29.50
2018-04-07T15:53:20.906Z,29.80
2018-04-07T15:55:55.424Z,30.10
2018-04-07T15:58:25.447Z,30.20
2018-04-07T16:01:01.222Z,30.20
2018-04-07T16:03:32.382Z,29.90
2018-04-07T16:06:07.073Z,29.90
2018-04-07T16:08:38.496Z,29.60
2018-04-07T16:11:09.094Z,29.40
2018-04-07T16:13:39.904Z,29.50
2018-04-07T16:16:10.025Z,29.50
2018-04-07T16:18:43.080Z,29.80
2018-04-07T16:21:17.527Z,30.00
2018-04-07T16:23:51.976Z,29.80
2018-04-07T16:26:23.515Z,30.00
2018-04-07T16:28:55.838Z,30.00
2018-04-07T16:31:25.359Z,30.20
2018-04-07T16:33:57.054Z,29.90
2018-04-07T16:36:29.977Z,30.30
2018-04-07T16:39:08.820Z,30.20
2018-04-07T16:41:41.318Z,29.40
2018-04-07T16:44:12.038Z,28.80
2018-04-07T16:46:43.151Z,28.20
2018-04-07T16:49:16.660Z,27.70
2018-04-07T16:51:47.304Z,27.20
2018-04-07T16:54:18.163Z,26.80
2018-04-07T16:56:48.601Z,26.50
2018-04-07T16:59:19.364Z,26.40
2018-04-07T17:01:49.664Z,26.00
2018-04-07T17:04:21.074Z,26.50
2018-04-07T17:06:52.058Z,26.70
2018-04-07T17:09:22.023Z,26.60
2018-04-07T17:11:53.576Z,27.30
2018-04-07T17:14:25.029Z,28.00
2018-04-07T17:16:55.234Z,28.70
2018-04-07T17:19:24.720Z,28.10
2018-04-07T17:21:55.360Z,28.20
2018-04-07T17:24:26.550Z,28.30
2018-04-07T17:26:56.820Z,28.20
2018-04-07T17:29:28.457Z,27.90
2018-04-07T17:32:01.805Z,28.00
2018-04-07T17:34:32.089Z,28.00
2018-04-07T17:37:03.185Z,28.20
2018-04-07T17:39:37.412Z,29.70
2018-04-07T17:42:14.307Z,30.30
2018-04-07T17:44:46.696Z,30.30
2018-04-07T17:47:17.149Z,31.10
2018-04-07T17:49:48.121Z,31.60
2018-04-07T17:52:18.613Z,32.20
2018-04-07T17:54:51.342Z,33.00
2018-04-07T17:57:22.598Z,33.60
2018-04-07T17:59:54.477Z,34.30
2018-04-07T18:02:27.082Z,34.90
2018-04-07T18:05:00.409Z,35.20
2018-04-07T18:07:31.033Z,35.70
2018-04-07T18:10:03.648Z,35.60
2018-04-07T18:12:34.365Z,36.40
2018-04-07T18:15:05.144Z,36.80
2018-04-07T18:17:36.778Z,36.70
2018-04-07T18:20:07.311Z,37.10
2018-04-07T18:22:37.858Z,37.00
2018-04-07T18:25:09.470Z,37.30
2018-04-07T18:27:39.847Z,38.00
2018-04-07T18:30:09.921Z,38.00
2018-04-07T18:32:40.048Z,38.00
2018-04-07T18:35:15.399Z,39.20
2018-04-07T18:37:45.848Z,39.20
2018-04-07T18:40:19.527Z,38.00
2018-04-07T18:42:51.265Z,38.10
2018-04-07T18:45:21.230Z,39.40
2018-04-07T18:47:52.819Z,39.40
2018-04-07T18:50:23.032Z,39.40
2018-04-07T18:52:52.833Z,39.20
2018-04-07T18:55:24.655Z,39.30
2018-04-07T18:57:55.057Z,39.30
2018-04-07T19:00:27.187Z,40.10
2018-04-07T19:02:58.906Z,40.00
2018-04-07T19:05:30.192Z,40.70
2018-04-07T19:08:01.010Z,41.00
2018-04-07T19:10:35.408Z,41.60
2018-04-07T19:13:06.619Z,41.10
2018-04-07T19:15:36.913Z,41.50
2018-04-07T19:18:06.406Z,41.90
2018-04-07T19:20:37.998Z,41.90
2018-04-07T19:23:07.604Z,42.30
2018-04-07T19:25:34.918Z,42.50
2018-04-07T19:28:01.100Z,42.40
2018-04-07T19:30:27.959Z,42.20
2018-04-07T19:32:54.061Z,42.20
2018-04-07T19:35:21.035Z,42.40
2018-04-07T19:37:48.862Z,42.80
2018-04-07T19:40:15.775Z,42.60
2018-04-07T19:42:41.927Z,42.10
2018-04-07T19:45:08.017Z,42.40
2018-04-07T19:47:34.391Z,42.00
2018-04-07T19:50:01.019Z,42.10
2018-04-07T19:52:27.225Z,42.50
2018-04-07T19:54:53.404Z,42.40
2018-04-07T19:57:20.276Z,43.10
2018-04-07T19:59:46.499Z,42.70
2018-04-07T20:02:12.634Z,42.90
2018-04-07T20:04:38.775Z,43.30
2018-04-07T20:07:04.946Z,43.30
2018-04-07T20:09:32.291Z,43.50
2018-04-07T20:11:59.188Z,43.30
2018-04-07T20:14:25.252Z,43.30
2018-04-07T20:16:51.378Z,43.30
2018-04-07T20:19:17.462Z,43.60
2018-04-07T20:21:43.860Z,43.70
2018-04-07T20:24:09.988Z,44.00
2018-04-07T20:26:36.092Z,44.20
2018-04-07T20:29:02.141Z,44.10
2018-04-07T20:31:28.223Z,44.60
2018-04-07T20:33:55.089Z,44.30
2018-04-07T20:36:21.905Z,44.20
2018-04-07T20:38:48.684Z,44.10
2018-04-07T20:41:15.470Z,44.30
2018-04-07T20:43:41.545Z,44.30
2018-04-07T20:46:07.773Z,44.30
2018-04-07T20:48:34.588Z,45.00
2018-04-07T20:51:08.336Z,44.90
2018-04-07T20:53:34.626Z,45.20
2018-04-07T20:56:00.905Z,44.90
2018-04-07T20:58:27.699Z,45.10
2018-04-07T21:00:53.909Z,45.40
2018-04-07T21:03:20.036Z,45.70
2018-04-07T21:05:46.823Z,46.40
2018-04-07T21:08:14.131Z,46.40
2018-04-07T21:10:40.915Z,46.80
2018-04-07T21:13:07.038Z,46.60
2018-04-07T21:15:33.147Z,46.80
2018-04-07T21:17:59.443Z,47.10
2018-04-07T21:20:25.663Z,47.00
2018-04-07T21:22:51.978Z,47.10
2018-04-07T21:25:18.564Z,47.10
2018-04-07T21:27:44.981Z,47.70
2018-04-07T21:30:11.093Z,48.20
2018-04-07T21:32:37.236Z,48.50
2018-04-07T21:35:03.958Z,49.00
2018-04-07T21:37:30.325Z,49.80
2018-04-07T21:39:58.089Z,50.20
2018-04-07T21:42:29.292Z,51.00
2018-04-07T21:44:58.686Z,51.20
2018-04-07T21:47:27.321Z,51.80
2018-04-07T21:49:54.677Z,51.70
2018-04-07T21:52:21.429Z,52.90
2018-04-07T21:54:47.781Z,53.00
2018-04-07T21:57:15.282Z,53.80
2018-04-07T21:59:42.117Z,55.90
2018-04-07T22:02:09.258Z,55.80
2018-04-07T22:04:37.338Z,55.90
2018-04-07T22:07:03.430Z,57.00
2018-04-07T22:09:30.644Z,57.30
2018-04-07T22:11:57.719Z,57.20
2018-04-07T22:14:23.834Z,58.00
2018-04-07T22:16:52.312Z,58.20
2018-04-07T22:19:18.485Z,58.80
2018-04-07T22:21:46.639Z,58.90
2018-04-07T22:24:12.987Z,60.70
2018-04-07T22:26:41.264Z,61.40
2018-04-07T22:29:09.663Z,62.10
2018-04-07T22:31:35.876Z,65.50
2018-04-07T22:34:01.906Z,69.20
2018-04-07T22:36:29.072Z,74.90
2018-04-07T22:38:56.877Z,74.80
2018-04-07T22:41:23.409Z,76.20
2018-04-07T22:43:49.874Z,77.10
2018-04-07T22:46:16.731Z,78.90
2018-04-07T22:48:43.006Z,80.80
2018-04-07T22:51:10.081Z,80.10
2018-04-07T22:53:36.319Z,79.10
2018-04-07T22:56:02.819Z,80.10
2018-04-07T22:58:31.872Z,79.80
2018-04-07T23:00:58.032Z,78.80
2018-04-07T23:03:24.115Z,78.40
2018-04-07T23:05:51.261Z,77.30
2018-04-07T23:08:17.439Z,76.50
2018-04-07T23:10:44.436Z,76.40
2018-04-07T23:13:11.483Z,75.90
2018-04-07T23:18:20.168Z,73.80
2018-04-07T23:20:46.291Z,74.00
2018-04-07T23:23:13.962Z,73.50
2018-04-07T23:25:40.026Z,75.20
2018-04-07T23:28:07.344Z,76.50
2018-04-07T23:30:34.211Z,75.70
2018-04-07T23:33:01.075Z,75.50
2018-04-07T23:35:28.079Z,75.20
2018-04-07T23:37:54.145Z,76.20
2018-04-07T23:40:21.081Z,77.20
2018-04-07T23:42:47.247Z,78.00
2018-04-07T23:45:13.431Z,77.30
2018-04-07T23:47:39.572Z,77.10
2018-04-07T23:50:05.689Z,78.20
2018-04-07T23:52:31.910Z,78.40
2018-04-07T23:54:57.966Z,79.00
2018-04-07T23:57:24.020Z,80.20
2018-04-07T23:59:50.638Z,82.50
